sensor_id;sensor_type;location;lat;lon;timestamp;P1;durP1;ratioP1;P2;durP2;ratioP2
40595;SDS011;26304;48.794;9.820;2023-04-03T00:04:30;0.60;;;0.60;;
40595;SDS011;26304;48.794;9.820;2023-04-03T00:10:14;0.70;;;0.70;;
40595;SDS011;26304;48.794;9.820;2023-04-03T00:15:56;0.60;;;0.60;;
40595;SDS011;26304;48.794;9.820;2023-04-03T00:21:39;0.60;;;0.60;;
40595;SDS011;26304;48.794;9.820;2023-04-03T00:27:23;0.60;;;0.60;;
40595;SDS011;26304;48.794;9.820;2023-04-03T00:33:06;0.55;;;0.55;;
40595;SDS011;26304;48.794;9.820;2023-04-03T00:38:48;0.80;;;0.80;;
40595;SDS011;26304;48.794;9.820;2023-04-03T00:51:03;0.98;;;0.70;;
40595;SDS011;26304;48.794;9.820;2023-04-03T00:56:47;0.50;;;0.50;;
40595;SDS011;26304;48.794;9.820;2023-04-03T01:02:31;0.60;;;0.60;;
40595;SDS011;26304;48.794;9.820;2023-04-03T01:08:15;0.60;;;0.60;;
40595;SDS011;26304;48.794;9.820;2023-04-03T01:13:58;0.60;;;0.60;;
40595;SDS011;26304;48.794;9.820;2023-04-03T01:19:40;0.73;;;0.73;;
40595;SDS011;26304;48.794;9.820;2023-04-03T01:25:31;0.77;;;0.77;;
40595;SDS011;26304;48.794;9.820;2023-04-03T01:31:16;0.65;;;0.65;;
40595;SDS011;26304;48.794;9.820;2023-04-03T01:37:06;0.60;;;0.60;;
40595;SDS011;26304;48.794;9.820;2023-04-03T01:42:49;0.70;;;0.70;;
40595;SDS011;26304;48.794;9.820;2023-04-03T01:48:31;0.63;;;0.63;;
40595;SDS011;26304;48.794;9.820;2023-04-03T01:54:15;0.50;;;0.50;;
40595;SDS011;26304;48.794;9.820;2023-04-03T01:59:57;0.60;;;0.60;;
40595;SDS011;26304;48.794;9.820;2023-04-03T02:05:40;0.60;;;0.60;;
40595;SDS011;26304;48.794;9.820;2023-04-03T02:11:24;0.40;;;0.40;;
40595;SDS011;26304;48.794;9.820;2023-04-03T02:17:06;1.38;;;0.55;;
40595;SDS011;26304;48.794;9.820;2023-04-03T02:22:49;0.55;;;0.55;;
40595;SDS011;26304;48.794;9.820;2023-04-03T02:28:33;0.50;;;0.50;;
40595;SDS011;26304;48.794;9.820;2023-04-03T02:34:15;0.60;;;0.60;;
40595;SDS011;26304;48.794;9.820;2023-04-03T02:39:58;0.50;;;0.50;;
40595;SDS011;26304;48.794;9.820;2023-04-03T02:45:42;0.40;;;0.40;;
40595;SDS011;26304;48.794;9.820;2023-04-03T02:51:24;0.40;;;0.40;;
40595;SDS011;26304;48.794;9.820;2023-04-03T02:57:06;0.50;;;0.50;;
40595;SDS011;26304;48.794;9.820;2023-04-03T03:02:51;1.08;;;0.57;;
40595;SDS011;26304;48.794;9.820;2023-04-03T03:08:33;0.60;;;0.60;;
40595;SDS011;26304;48.794;9.820;2023-04-03T03:14:16;0.50;;;0.50;;
40595;SDS011;26304;48.794;9.820;2023-04-03T03:20:00;0.38;;;0.38;;
40595;SDS011;26304;48.794;9.820;2023-04-03T03:25:42;0.50;;;0.50;;
40595;SDS011;26304;48.794;9.820;2023-04-03T03:31:25;0.57;;;0.57;;
40595;SDS011;26304;48.794;9.820;2023-04-03T03:37:09;0.40;;;0.40;;
40595;SDS011;26304;48.794;9.820;2023-04-03T03:42:51;2.40;;;0.70;;
40595;SDS011;26304;48.794;9.820;2023-04-03T03:48:33;2.67;;;0.70;;
40595;SDS011;26304;48.794;9.820;2023-04-03T03:54:17;0.93;;;0.40;;
40595;SDS011;26304;48.794;9.820;2023-04-03T03:59:59;0.47;;;0.47;;
40595;SDS011;26304;48.794;9.820;2023-04-03T04:05:42;0.60;;;0.60;;
40595;SDS011;26304;48.794;9.820;2023-04-03T04:11:26;0.73;;;0.40;;
40595;SDS011;26304;48.794;9.820;2023-04-03T04:17:09;1.65;;;0.60;;
40595;SDS011;26304;48.794;9.820;2023-04-03T04:22:51;1.52;;;0.50;;
40595;SDS011;26304;48.794;9.820;2023-04-03T04:28:35;1.55;;;0.40;;
40595;SDS011;26304;48.794;9.820;2023-04-03T04:34:17;1.00;;;0.60;;
40595;SDS011;26304;48.794;9.820;2023-04-03T04:40:00;0.90;;;0.60;;
40595;SDS011;26304;48.794;9.820;2023-04-03T04:45:44;1.80;;;0.50;;
40595;SDS011;26304;48.794;9.820;2023-04-03T04:51:26;0.40;;;0.40;;
40595;SDS011;26304;48.794;9.820;2023-04-03T04:57:08;3.88;;;0.75;;
40595;SDS011;26304;48.794;9.820;2023-04-03T05:02:53;0.65;;;0.45;;
40595;SDS011;26304;48.794;9.820;2023-04-03T05:08:35;0.45;;;0.43;;
40595;SDS011;26304;48.794;9.820;2023-04-03T05:14:17;4.13;;;0.82;;
40595;SDS011;26304;48.794;9.820;2023-04-03T05:20:01;3.50;;;0.70;;
40595;SDS011;26304;48.794;9.820;2023-04-03T05:25:45;3.42;;;0.70;;
40595;SDS011;26304;48.794;9.820;2023-04-03T05:31:29;1.95;;;0.98;;
40595;SDS011;26304;48.794;9.820;2023-04-03T05:37:13;8.77;;;1.95;;
40595;SDS011;26304;48.794;9.820;2023-04-03T05:42:55;3.38;;;1.40;;
40595;SDS011;26304;48.794;9.820;2023-04-03T05:48:38;4.43;;;1.52;;
40595;SDS011;26304;48.794;9.820;2023-04-03T05:54:23;3.70;;;1.45;;
40595;SDS011;26304;48.794;9.820;2023-04-03T06:00:08;4.15;;;1.48;;
40595;SDS011;26304;48.794;9.820;2023-04-03T06:05:55;3.08;;;1.52;;
40595;SDS011;26304;48.794;9.820;2023-04-03T06:11:39;6.65;;;1.50;;
40595;SDS011;26304;48.794;9.820;2023-04-03T06:17:21;2.47;;;1.02;;
40595;SDS011;26304;48.794;9.820;2023-04-03T06:23:04;4.57;;;1.65;;
40595;SDS011;26304;48.794;9.820;2023-04-03T06:28:48;2.95;;;1.50;;
40595;SDS011;26304;48.794;9.820;2023-04-03T06:34:30;3.60;;;1.50;;
40595;SDS011;26304;48.794;9.820;2023-04-03T06:40:15;2.40;;;1.25;;
40595;SDS011;26304;48.794;9.820;2023-04-03T06:46:03;3.58;;;1.70;;
40595;SDS011;26304;48.794;9.820;2023-04-03T06:51:46;2.95;;;1.00;;
40595;SDS011;26304;48.794;9.820;2023-04-03T06:57:29;3.67;;;1.27;;
40595;SDS011;26304;48.794;9.820;2023-04-03T07:03:13;1.70;;;1.10;;
40595;SDS011;26304;48.794;9.820;2023-04-03T07:08:55;2.58;;;1.08;;
40595;SDS011;26304;48.794;9.820;2023-04-03T07:14:37;2.42;;;1.25;;
40595;SDS011;26304;48.794;9.820;2023-04-03T07:20:21;3.20;;;1.35;;
40595;SDS011;26304;48.794;9.820;2023-04-03T07:26:04;2.08;;;1.10;;
40595;SDS011;26304;48.794;9.820;2023-04-03T07:31:47;1.65;;;1.27;;
40595;SDS011;26304;48.794;9.820;2023-04-03T07:37:31;2.75;;;1.00;;
40595;SDS011;26304;48.794;9.820;2023-04-03T07:43:14;2.83;;;1.20;;
40595;SDS011;26304;48.794;9.820;2023-04-03T07:48:56;4.05;;;1.13;;
40595;SDS011;26304;48.794;9.820;2023-04-03T07:54:40;2.53;;;1.15;;
40595;SDS011;26304;48.794;9.820;2023-04-03T08:00:23;1.45;;;0.95;;
40595;SDS011;26304;48.794;9.820;2023-04-03T08:06:06;2.00;;;1.10;;
40595;SDS011;26304;48.794;9.820;2023-04-03T08:11:52;1.45;;;0.90;;
40595;SDS011;26304;48.794;9.820;2023-04-03T08:17:35;2.22;;;0.90;;
40595;SDS011;26304;48.794;9.820;2023-04-03T08:23:17;1.35;;;0.95;;
40595;SDS011;26304;48.794;9.820;2023-04-03T08:29:02;1.40;;;1.00;;
40595;SDS011;26304;48.794;9.820;2023-04-03T08:34:45;1.77;;;0.95;;
40595;SDS011;26304;48.794;9.820;2023-04-03T08:40:27;1.63;;;0.93;;
40595;SDS011;26304;48.794;9.820;2023-04-03T08:46:11;0.90;;;0.70;;
40595;SDS011;26304;48.794;9.820;2023-04-03T08:51:56;1.17;;;1.00;;
40595;SDS011;26304;48.794;9.820;2023-04-03T08:57:41;1.75;;;0.73;;
40595;SDS011;26304;48.794;9.820;2023-04-03T09:03:29;0.80;;;0.80;;
40595;SDS011;26304;48.794;9.820;2023-04-03T09:09:14;0.95;;;0.70;;
40595;SDS011;26304;48.794;9.820;2023-04-03T09:15:01;1.48;;;1.00;;
40595;SDS011;26304;48.794;9.820;2023-04-03T09:20:54;0.95;;;0.70;;
40595;SDS011;26304;48.794;9.820;2023-04-03T09:26:44;0.98;;;0.70;;
40595;SDS011;26304;48.794;9.820;2023-04-03T09:32:32;0.93;;;0.90;;
40595;SDS011;26304;48.794;9.820;2023-04-03T09:38:18;1.92;;;0.80;;
40595;SDS011;26304;48.794;9.820;2023-04-03T09:44:02;1.77;;;0.80;;
40595;SDS011;26304;48.794;9.820;2023-04-03T09:50:10;1.25;;;0.95;;
40595;SDS011;26304;48.794;9.820;2023-04-03T09:56:03;2.63;;;0.95;;
40595;SDS011;26304;48.794;9.820;2023-04-03T10:02:00;0.80;;;0.60;;
40595;SDS011;26304;48.794;9.820;2023-04-03T10:07:45;2.40;;;1.23;;
40595;SDS011;26304;48.794;9.820;2023-04-03T10:13:30;2.28;;;1.00;;
40595;SDS011;26304;48.794;9.820;2023-04-03T10:19:17;1.27;;;0.80;;
40595;SDS011;26304;48.794;9.820;2023-04-03T10:25:15;1.27;;;1.17;;
40595;SDS011;26304;48.794;9.820;2023-04-03T10:31:06;3.13;;;1.60;;
40595;SDS011;26304;48.794;9.820;2023-04-03T10:36:57;1.75;;;1.50;;
40595;SDS011;26304;48.794;9.820;2023-04-03T10:42:52;3.08;;;1.77;;
40595;SDS011;26304;48.794;9.820;2023-04-03T10:48:51;5.65;;;1.98;;
40595;SDS011;26304;48.794;9.820;2023-04-03T10:54:56;3.58;;;2.70;;
40595;SDS011;26304;48.794;9.820;2023-04-03T11:00:49;4.28;;;3.40;;
40595;SDS011;26304;48.794;9.820;2023-04-03T11:06:37;5.30;;;3.83;;
40595;SDS011;26304;48.794;9.820;2023-04-03T11:12:24;6.45;;;3.42;;
40595;SDS011;26304;48.794;9.820;2023-04-03T11:18:15;4.20;;;3.63;;
40595;SDS011;26304;48.794;9.820;2023-04-03T11:24:05;4.82;;;3.13;;
40595;SDS011;26304;48.794;9.820;2023-04-03T11:29:53;3.85;;;3.28;;
40595;SDS011;26304;48.794;9.820;2023-04-03T11:35:37;4.93;;;3.15;;
40595;SDS011;26304;48.794;9.820;2023-04-03T11:41:28;3.90;;;2.80;;
40595;SDS011;26304;48.794;9.820;2023-04-03T11:47:12;3.40;;;3.10;;
40595;SDS011;26304;48.794;9.820;2023-04-03T11:53:32;3.10;;;2.47;;
40595;SDS011;26304;48.794;9.820;2023-04-03T11:59:23;2.97;;;2.67;;
40595;SDS011;26304;48.794;9.820;2023-04-03T12:05:26;3.17;;;2.47;;
40595;SDS011;26304;48.794;9.820;2023-04-03T12:11:19;3.13;;;2.40;;
40595;SDS011;26304;48.794;9.820;2023-04-03T12:17:12;3.25;;;2.40;;
40595;SDS011;26304;48.794;9.820;2023-04-03T12:23:08;2.53;;;2.33;;
40595;SDS011;26304;48.794;9.820;2023-04-03T12:29:10;2.95;;;2.58;;
40595;SDS011;26304;48.794;9.820;2023-04-03T12:35:04;3.20;;;2.53;;
40595;SDS011;26304;48.794;9.820;2023-04-03T12:40:52;4.82;;;2.58;;
40595;SDS011;26304;48.794;9.820;2023-04-03T12:46:42;2.88;;;2.22;;
40595;SDS011;26304;48.794;9.820;2023-04-03T12:52:32;2.25;;;2.05;;
40595;SDS011;26304;48.794;9.820;2023-04-03T12:58:20;2.15;;;2.00;;
40595;SDS011;26304;48.794;9.820;2023-04-03T13:04:04;2.15;;;1.92;;
40595;SDS011;26304;48.794;9.820;2023-04-03T13:09:56;2.25;;;1.85;;
40595;SDS011;26304;48.794;9.820;2023-04-03T13:15:41;1.90;;;1.80;;
40595;SDS011;26304;48.794;9.820;2023-04-03T13:21:27;2.35;;;1.73;;
40595;SDS011;26304;48.794;9.820;2023-04-03T13:27:13;2.10;;;1.77;;
40595;SDS011;26304;48.794;9.820;2023-04-03T13:32:57;2.10;;;1.90;;
40595;SDS011;26304;48.794;9.820;2023-04-03T13:38:41;2.63;;;1.65;;
40595;SDS011;26304;48.794;9.820;2023-04-03T13:44:30;1.73;;;1.63;;
40595;SDS011;26304;48.794;9.820;2023-04-03T13:50:16;1.90;;;1.70;;
40595;SDS011;26304;48.794;9.820;2023-04-03T13:56:05;1.83;;;1.73;;
40595;SDS011;26304;48.794;9.820;2023-04-03T14:01:52;1.63;;;1.52;;
40595;SDS011;26304;48.794;9.820;2023-04-03T14:07:36;1.73;;;1.63;;
40595;SDS011;26304;48.794;9.820;2023-04-03T14:13:19;2.42;;;1.60;;
40595;SDS011;26304;48.794;9.820;2023-04-03T14:19:03;1.80;;;1.70;;
40595;SDS011;26304;48.794;9.820;2023-04-03T14:24:46;1.70;;;1.60;;
40595;SDS011;26304;48.794;9.820;2023-04-03T14:30:29;2.25;;;1.73;;
40595;SDS011;26304;48.794;9.820;2023-04-03T14:36:15;1.70;;;1.60;;
40595;SDS011;26304;48.794;9.820;2023-04-03T14:41:59;1.65;;;1.55;;
40595;SDS011;26304;48.794;9.820;2023-04-03T14:47:42;2.65;;;1.67;;
40595;SDS011;26304;48.794;9.820;2023-04-03T14:53:28;2.83;;;1.67;;
40595;SDS011;26304;48.794;9.820;2023-04-03T14:59:13;1.75;;;1.65;;
40595;SDS011;26304;48.794;9.820;2023-04-03T15:04:58;1.50;;;1.40;;
40595;SDS011;26304;48.794;9.820;2023-04-03T15:10:45;1.27;;;1.17;;
40595;SDS011;26304;48.794;9.820;2023-04-03T15:16:27;1.70;;;1.60;;
40595;SDS011;26304;48.794;9.820;2023-04-03T15:22:11;1.48;;;1.38;;
40595;SDS011;26304;48.794;9.820;2023-04-03T15:27:57;1.50;;;1.40;;
40595;SDS011;26304;48.794;9.820;2023-04-03T15:33:40;1.70;;;1.38;;
40595;SDS011;26304;48.794;9.820;2023-04-03T15:39:23;2.50;;;1.40;;
40595;SDS011;26304;48.794;9.820;2023-04-03T15:45:11;3.33;;;1.33;;
40595;SDS011;26304;48.794;9.820;2023-04-03T15:50:53;1.65;;;1.50;;
40595;SDS011;26304;48.794;9.820;2023-04-03T15:56:37;1.52;;;1.35;;
40595;SDS011;26304;48.794;9.820;2023-04-03T16:02:21;1.55;;;1.45;;
40595;SDS011;26304;48.794;9.820;2023-04-03T16:08:04;1.98;;;1.10;;
40595;SDS011;26304;48.794;9.820;2023-04-03T16:13:48;2.80;;;1.60;;
40595;SDS011;26304;48.794;9.820;2023-04-03T16:19:35;2.07;;;1.47;;
40595;SDS011;26304;48.794;9.820;2023-04-03T16:25:20;1.52;;;1.35;;
40595;SDS011;26304;48.794;9.820;2023-04-03T16:31:04;2.28;;;1.42;;
40595;SDS011;26304;48.794;9.820;2023-04-03T16:36:51;2.42;;;1.30;;
40595;SDS011;26304;48.794;9.820;2023-04-03T16:42:34;2.85;;;1.50;;
40595;SDS011;26304;48.794;9.820;2023-04-03T16:48:16;3.72;;;1.45;;
40595;SDS011;26304;48.794;9.820;2023-04-03T16:54:00;5.73;;;1.63;;
40595;SDS011;26304;48.794;9.820;2023-04-03T16:59:43;4.05;;;1.80;;
40595;SDS011;26304;48.794;9.820;2023-04-03T17:05:25;6.88;;;1.73;;
40595;SDS011;26304;48.794;9.820;2023-04-03T17:11:09;3.20;;;1.70;;
40595;SDS011;26304;48.794;9.820;2023-04-03T17:16:52;3.03;;;1.70;;
40595;SDS011;26304;48.794;9.820;2023-04-03T17:22:36;3.67;;;2.00;;
40595;SDS011;26304;48.794;9.820;2023-04-03T17:28:23;1.55;;;1.42;;
40595;SDS011;26304;48.794;9.820;2023-04-03T17:34:08;1.98;;;1.50;;
40595;SDS011;26304;48.794;9.820;2023-04-03T17:39:51;2.58;;;1.65;;
40595;SDS011;26304;48.794;9.820;2023-04-03T17:45:35;3.05;;;1.70;;
40595;SDS011;26304;48.794;9.820;2023-04-03T17:51:19;1.73;;;1.58;;
40595;SDS011;26304;48.794;9.820;2023-04-03T17:57:03;3.83;;;1.77;;
40595;SDS011;26304;48.794;9.820;2023-04-03T18:02:47;4.45;;;1.88;;
40595;SDS011;26304;48.794;9.820;2023-04-03T18:08:34;3.42;;;1.73;;
40595;SDS011;26304;48.794;9.820;2023-04-03T18:14:20;3.20;;;1.92;;
40595;SDS011;26304;48.794;9.820;2023-04-03T18:20:07;3.83;;;2.08;;
40595;SDS011;26304;48.794;9.820;2023-04-03T18:25:51;6.85;;;2.30;;
40595;SDS011;26304;48.794;9.820;2023-04-03T18:31:34;3.13;;;1.95;;
40595;SDS011;26304;48.794;9.820;2023-04-03T18:37:19;3.72;;;1.90;;
40595;SDS011;26304;48.794;9.820;2023-04-03T18:43:05;5.05;;;2.63;;
40595;SDS011;26304;48.794;9.820;2023-04-03T18:48:47;5.18;;;2.45;;
40595;SDS011;26304;48.794;9.820;2023-04-03T18:54:31;6.95;;;4.70;;
40595;SDS011;26304;48.794;9.820;2023-04-03T19:00:15;8.23;;;5.40;;
40595;SDS011;26304;48.794;9.820;2023-04-03T19:05:59;9.90;;;5.70;;
40595;SDS011;26304;48.794;9.820;2023-04-03T19:11:42;5.75;;;5.13;;
40595;SDS011;26304;48.794;9.820;2023-04-03T19:17:25;6.50;;;5.03;;
40595;SDS011;26304;48.794;9.820;2023-04-03T19:23:08;5.38;;;4.20;;
40595;SDS011;26304;48.794;9.820;2023-04-03T19:28:54;4.72;;;4.18;;
40595;SDS011;26304;48.794;9.820;2023-04-03T19:34:36;5.50;;;3.80;;
40595;SDS011;26304;48.794;9.820;2023-04-03T19:40:18;2.70;;;1.90;;
40595;SDS011;26304;48.794;9.820;2023-04-03T19:46:02;2.50;;;1.50;;
40595;SDS011;26304;48.794;9.820;2023-04-03T19:51:45;1.75;;;1.50;;
40595;SDS011;26304;48.794;9.820;2023-04-03T19:57:28;4.38;;;2.05;;
40595;SDS011;26304;48.794;9.820;2023-04-03T20:03:12;2.92;;;1.75;;
40595;SDS011;26304;48.794;9.820;2023-04-03T20:08:54;1.60;;;1.50;;
40595;SDS011;26304;48.794;9.820;2023-04-03T20:14:37;1.77;;;1.58;;
40595;SDS011;26304;48.794;9.820;2023-04-03T20:20:22;1.55;;;1.45;;
40595;SDS011;26304;48.794;9.820;2023-04-03T20:26:05;1.77;;;1.40;;
40595;SDS011;26304;48.794;9.820;2023-04-03T20:31:48;1.40;;;1.30;;
40595;SDS011;26304;48.794;9.820;2023-04-03T20:37:34;1.30;;;1.20;;
40595;SDS011;26304;48.794;9.820;2023-04-03T20:43:17;2.97;;;1.35;;
40595;SDS011;26304;48.794;9.820;2023-04-03T20:49:01;1.83;;;1.13;;
40595;SDS011;26304;48.794;9.820;2023-04-03T20:54:45;1.55;;;1.23;;
40595;SDS011;26304;48.794;9.820;2023-04-03T21:00:28;1.20;;;1.10;;
40595;SDS011;26304;48.794;9.820;2023-04-03T21:24:50;1.20;;;1.10;;
40595;SDS011;26304;48.794;9.820;2023-04-03T21:30:33;1.70;;;1.20;;
40595;SDS011;26304;48.794;9.820;2023-04-03T21:36:16;1.30;;;1.02;;
40595;SDS011;26304;48.794;9.820;2023-04-03T21:41:58;1.10;;;1.10;;
40595;SDS011;26304;48.794;9.820;2023-04-03T21:47:41;1.27;;;1.17;;
40595;SDS011;26304;48.794;9.820;2023-04-03T21:53:25;1.35;;;1.20;;
40595;SDS011;26304;48.794;9.820;2023-04-03T21:59:09;0.85;;;0.85;;
40595;SDS011;26304;48.794;9.820;2023-04-03T22:04:51;1.00;;;1.00;;
40595;SDS011;26304;48.794;9.820;2023-04-03T22:30:29;0.77;;;0.77;;
40595;SDS011;26304;48.794;9.820;2023-04-03T22:36:12;1.17;;;0.90;;
40595;SDS011;26304;48.794;9.820;2023-04-03T22:41:55;0.80;;;0.77;;
40595;SDS011;26304;48.794;9.820;2023-04-03T22:54:16;1.00;;;0.90;;
40595;SDS011;26304;48.794;9.820;2023-04-03T22:59:59;0.88;;;0.80;;
40595;SDS011;26304;48.794;9.820;2023-04-03T23:05:41;1.02;;;0.90;;
40595;SDS011;26304;48.794;9.820;2023-04-03T23:11:25;1.08;;;0.98;;
40595;SDS011;26304;48.794;9.820;2023-04-03T23:17:07;1.30;;;0.90;;
40595;SDS011;26304;48.794;9.820;2023-04-03T23:22:50;0.82;;;0.60;;
40595;SDS011;26304;48.794;9.820;2023-04-03T23:28:34;0.70;;;0.70;;
40595;SDS011;26304;48.794;9.820;2023-04-03T23:34:16;1.33;;;0.85;;
40595;SDS011;26304;48.794;9.820;2023-04-03T23:39:59;0.80;;;0.80;;
40595;SDS011;26304;48.794;9.820;2023-04-03T23:45:44;1.00;;;0.90;;
40595;SDS011;26304;48.794;9.820;2023-04-03T23:51:26;1.10;;;1.00;;
40595;SDS011;26304;48.794;9.820;2023-04-03T23:57:09;0.75;;;0.73;;
